Time,TemperatureF,DewpointF,PressureIn,WindDirection,WindDirectionDegrees,WindSpeedMPH,WindSpeedGustMPH,Humidity,HourlyPrecipIn,Conditions,Clouds,dailyrainin,SolarRadiationWatts/m^2,SoftwareType,DateUTC
2013-11-08 00:02:00,49.0,26.0,-100.00,SE,138,0.0,4.0,40,0.00,,,0.00,0.000000,,2013-11-08 08:02:00,
2013-11-08 00:12:00,49.0,26.0,-100.00,SE,138,0.0,4.0,40,0.00,,,0.00,0.000000,,2013-11-08 08:12:00,
2013-11-08 00:22:00,49.0,26.0,-100.00,SE,138,0.0,4.0,40,0.00,,,0.00,0.000000,,2013-11-08 08:22:00,
2013-11-08 01:21:00,47.0,25.0,-100.00,SE,127,0.0,4.0,42,0.00,,,0.00,0.000000,,2013-11-08 09:21:00,
2013-11-08 02:23:00,46.0,26.0,-100.00,ESE,107,0.0,4.0,46,0.00,,,-99.99,0.000000,,2013-11-08 10:23:00,
2013-11-08 03:21:00,45.0,23.0,-100.00,ESE,102,0.0,5.0,41,0.00,,,0.00,0.000000,,2013-11-08 11:21:00,
2013-11-08 04:11:00,45.0,26.0,-100.00,ESE,117,0.0,4.0,47,-99.99,,,0.00,0.000000,,2013-11-08 12:11:00,
2013-11-08 04:21:00,45.0,26.0,-100.00,ESE,117,0.0,4.0,47,-99.99,,,0.00,0.000000,,2013-11-08 12:21:00,
2013-11-08 05:21:00,41.0,24.0,-100.00,ESE,114,0.0,4.0,50,0.00,,,0.00,0.000000,,2013-11-08 13:21:00,
2013-11-08 06:21:00,42.0,24.0,-100.00,ESE,107,0.0,4.0,49,-99.99,,,0.00,0.000000,,2013-11-08 14:21:00,
2013-11-08 07:22:00,41.0,26.0,-100.00,SE,126,0.0,4.0,54,-99.99,,,0.00,0.000000,,2013-11-08 15:22:00,
2013-11-08 08:23:00,41.0,25.0,-100.00,SE,129,0.0,4.0,53,-99.99,,,0.00,6.000000,,2013-11-08 16:23:00,
2013-11-08 09:12:00,45.0,27.0,-100.00,SE,130,0.0,4.0,49,-99.99,,,0.00,51.000000,,2013-11-08 17:12:00,
2013-11-08 09:52:00,56.0,24.0,-100.00,NW,312,0.0,5.0,29,-99.99,,,0.00,309.000000,,2013-11-08 17:52:00,
2013-11-08 10:02:00,56.0,24.0,-100.00,NW,312,0.0,5.0,29,-99.99,,,0.00,309.000000,,2013-11-08 18:02:00,
2013-11-08 10:12:00,56.0,24.0,-100.00,NW,312,0.0,5.0,29,-99.99,,,0.00,309.000000,,2013-11-08 18:12:00,
2013-11-08 10:22:00,56.0,24.0,-100.00,NW,312,0.0,5.0,29,-99.99,,,0.00,309.000000,,2013-11-08 18:22:00,
2013-11-08 10:52:00,64.0,23.0,-100.00,SSW,209,0.0,6.0,21,0.00,,,0.00,620.000000,,2013-11-08 18:52:00,
2013-11-08 11:01:00,64.0,23.0,-100.00,SSW,209,0.0,6.0,21,0.00,,,0.00,620.000000,,2013-11-08 19:01:00,
2013-11-08 11:12:00,64.0,23.0,-100.00,SSW,209,0.0,6.0,21,0.00,,,0.00,620.000000,,2013-11-08 19:12:00,
2013-11-08 11:21:00,64.0,23.0,-100.00,SSW,209,0.0,6.0,21,0.00,,,0.00,620.000000,,2013-11-08 19:21:00,
2013-11-08 11:52:00,69.0,21.0,-100.00,ENE,70,0.0,5.0,16,0.00,,,0.00,645.000000,,2013-11-08 19:52:00,
2013-11-08 12:02:00,69.0,21.0,-100.00,ENE,70,0.0,5.0,16,0.00,,,0.00,645.000000,,2013-11-08 20:02:00,
2013-11-08 12:11:00,69.0,21.0,-100.00,ENE,70,0.0,5.0,16,0.00,,,0.00,645.000000,,2013-11-08 20:11:00,
2013-11-08 12:21:00,69.0,21.0,-100.00,ENE,70,0.0,5.0,16,0.00,,,0.00,645.000000,,2013-11-08 20:21:00,
2013-11-08 12:53:00,76.0,22.0,-100.00,WSW,254,0.0,4.0,13,0.00,,,0.00,823.000000,,2013-11-08 20:53:00,
2013-11-08 13:02:00,76.0,22.0,-100.00,WSW,254,0.0,4.0,13,0.00,,,0.00,823.000000,,2013-11-08 21:02:00,
2013-11-08 14:23:00,77.0,24.0,-100.00,WSW,243,3.0,12.0,14,0.00,,,0.00,766.000000,,2013-11-08 22:23:00,
2013-11-08 14:53:00,75.0,23.0,-100.00,SW,234,8.0,16.0,14,-99.99,,,0.00,679.000000,,2013-11-08 22:53:00,
2013-11-08 15:02:00,75.0,23.0,-100.00,SW,234,8.0,16.0,14,-99.99,,,0.00,679.000000,,2013-11-08 23:02:00,
2013-11-08 15:12:00,75.0,23.0,-100.00,SW,234,8.0,16.0,14,-99.99,,,0.00,679.000000,,2013-11-08 23:12:00,
2013-11-08 15:22:00,75.0,23.0,-100.00,SW,234,8.0,16.0,14,-99.99,,,0.00,679.000000,,2013-11-08 23:22:00,
2013-11-08 15:53:00,72.0,27.0,-100.00,SSW,203,4.0,15.0,19,0.00,,,0.00,280.000000,,2013-11-08 23:53:00,
2013-11-08 16:02:00,72.0,27.0,-100.00,SSW,203,4.0,15.0,19,0.00,,,0.00,280.000000,,2013-11-09 00:02:00,
2013-11-08 16:12:00,72.0,27.0,-100.00,SSW,203,4.0,15.0,19,0.00,,,0.00,280.000000,,2013-11-09 00:12:00,
2013-11-08 16:21:00,72.0,27.0,-100.00,SSW,203,4.0,15.0,19,0.00,,,0.00,280.000000,,2013-11-09 00:21:00,
2013-11-08 16:52:00,66.0,28.0,-100.00,SE,134,0.0,10.0,24,0.00,,,0.00,140.000000,,2013-11-09 00:52:00,
2013-11-08 17:02:00,66.0,28.0,-100.00,SE,134,0.0,10.0,24,0.00,,,0.00,140.000000,,2013-11-09 01:02:00,
2013-11-08 17:11:00,66.0,28.0,-100.00,SE,134,0.0,10.0,24,0.00,,,0.00,140.000000,,2013-11-09 01:11:00,
2013-11-08 17:22:00,66.0,28.0,-100.00,SE,134,0.0,10.0,24,0.00,,,0.00,140.000000,,2013-11-09 01:22:00,
2013-11-08 17:52:00,59.0,26.0,-100.00,SE,135,0.0,6.0,28,0.00,,,0.00,20.000000,,2013-11-09 01:52:00,
2013-11-08 18:02:00,59.0,26.0,-100.00,SE,135,0.0,6.0,28,0.00,,,0.00,20.000000,,2013-11-09 02:02:00,
2013-11-08 18:11:00,59.0,26.0,-100.00,SE,135,0.0,6.0,28,0.00,,,0.00,20.000000,,2013-11-09 02:11:00,
2013-11-08 18:22:00,59.0,26.0,-100.00,SE,135,0.0,6.0,28,0.00,,,0.00,20.000000,,2013-11-09 02:22:00,
2013-11-08 18:52:00,56.0,24.0,-100.00,SE,139,1.0,4.0,29,0.00,,,0.00,0.000000,,2013-11-09 02:52:00,
2013-11-08 19:02:00,56.0,24.0,-100.00,SE,139,1.0,4.0,29,0.00,,,0.00,0.000000,,2013-11-09 03:02:00,
2013-11-08 19:11:00,56.0,24.0,-100.00,SE,139,1.0,4.0,29,0.00,,,0.00,0.000000,,2013-11-09 03:11:00,
2013-11-08 19:21:00,56.0,24.0,-100.00,SE,139,1.0,4.0,29,0.00,,,0.00,0.000000,,2013-11-09 03:21:00,
2013-11-08 19:54:00,55.0,24.0,-100.00,SE,138,0.0,5.0,30,0.00,,,-99.99,0.000000,,2013-11-09 03:54:00,
2013-11-08 20:04:00,55.0,24.0,-100.00,SE,138,0.0,5.0,30,0.00,,,-99.99,0.000000,,2013-11-09 04:04:00,
2013-11-08 20:13:00,55.0,24.0,-100.00,SE,138,0.0,5.0,30,0.00,,,-99.99,0.000000,,2013-11-09 04:13:00,
2013-11-08 20:23:00,55.0,24.0,-100.00,SE,138,0.0,5.0,30,0.00,,,-99.99,0.000000,,2013-11-09 04:23:00,
2013-11-08 20:53:00,52.0,24.0,-100.00,SE,137,0.0,4.0,33,0.00,,,0.00,0.000000,,2013-11-09 04:53:00,
2013-11-08 21:03:00,52.0,24.0,-100.00,SE,137,0.0,4.0,33,0.00,,,0.00,0.000000,,2013-11-09 05:03:00,
2013-11-08 21:13:00,52.0,24.0,-100.00,SE,137,0.0,4.0,33,0.00,,,0.00,0.000000,,2013-11-09 05:13:00,
2013-11-08 21:22:00,52.0,24.0,-100.00,SE,137,0.0,4.0,33,0.00,,,0.00,0.000000,,2013-11-09 05:22:00,
2013-11-08 21:53:00,52.0,25.0,-100.00,SSE,151,0.0,4.0,35,0.00,,,-99.99,0.000000,,2013-11-09 05:53:00,
2013-11-08 22:03:00,52.0,25.0,-100.00,SSE,151,0.0,4.0,35,0.00,,,-99.99,0.000000,,2013-11-09 06:03:00,
2013-11-08 22:13:00,52.0,25.0,-100.00,SSE,151,0.0,4.0,35,0.00,,,-99.99,0.000000,,2013-11-09 06:13:00,
2013-11-08 22:22:00,52.0,25.0,-100.00,SSE,151,0.0,4.0,35,0.00,,,-99.99,0.000000,,2013-11-09 06:22:00,